createdAt,value
2022-09-27T00:02:00.793Z,11.84
2022-09-27T00:07:07.423Z,11.84
2022-09-27T00:12:13.621Z,11.81
2022-09-27T00:17:19.359Z,11.77
2022-09-27T00:22:25.955Z,11.76
2022-09-27T00:27:31.765Z,11.80
2022-09-27T00:32:37.712Z,11.82
2022-09-27T00:37:43.803Z,11.82
2022-09-27T00:42:49.878Z,11.83
2022-09-27T00:48:00.680Z,11.87
2022-09-27T00:53:15.742Z,11.87
2022-09-27T00:58:27.518Z,11.86
2022-09-27T01:03:40.699Z,11.90
2022-09-27T01:08:46.492Z,11.96
2022-09-27T01:14:07.531Z,11.99
2022-09-27T01:19:30.694Z,11.99
2022-09-27T01:25:07.301Z,11.99
2022-09-27T01:30:35.930Z,11.97
2022-09-27T01:35:57.792Z,11.97
2022-09-27T01:41:14.099Z,12.00
2022-09-27T01:46:26.148Z,12.00
2022-09-27T01:51:59.455Z,11.98
2022-09-27T01:57:07.276Z,11.95
2022-09-27T02:02:22.485Z,11.96
2022-09-27T02:08:01.631Z,11.96
2022-09-27T02:13:15.988Z,11.93
2022-09-27T02:18:28.896Z,11.91
2022-09-27T02:23:40.920Z,11.92
2022-09-27T02:28:57.296Z,11.97
2022-09-27T02:34:17.016Z,11.98
2022-09-27T02:39:24.019Z,11.94
2022-09-27T02:44:38.568Z,11.94
2022-09-27T02:50:08.833Z,11.97
2022-09-27T02:55:58.458Z,11.94
2022-09-27T03:01:36.759Z,11.93
2022-09-27T03:06:48.133Z,11.95
2022-09-27T03:11:54.698Z,11.97
2022-09-27T03:17:00.649Z,11.98
2022-09-27T03:22:39.465Z,11.94
2022-09-27T03:27:45.507Z,11.94
2022-09-27T03:32:51.709Z,11.97
2022-09-27T03:38:16.240Z,11.99
2022-09-27T03:43:22.722Z,11.98
2022-09-27T03:48:31.150Z,11.96
2022-09-27T03:53:37.075Z,11.93
2022-09-27T03:58:42.957Z,11.94
2022-09-27T04:03:50.013Z,11.98
2022-09-27T04:09:06.901Z,12.02
2022-09-27T04:14:29.094Z,12.05
2022-09-27T04:19:54.065Z,12.10
2022-09-27T04:25:00.172Z,12.16
2022-09-27T04:30:14.493Z,12.13
2022-09-27T04:36:02.731Z,12.11
2022-09-27T04:41:09.482Z,12.06
2022-09-27T04:46:18.506Z,12.01
2022-09-27T04:51:24.696Z,11.95
2022-09-27T04:56:31.225Z,11.92
2022-09-27T05:01:37.470Z,11.90
2022-09-27T05:07:01.942Z,11.95
2022-09-27T05:12:14.022Z,11.98
2022-09-27T05:17:37.272Z,11.95
2022-09-27T05:23:03.478Z,11.91
2022-09-27T05:28:09.703Z,11.93
2022-09-27T05:33:16.221Z,11.95
2022-09-27T05:38:22.391Z,11.90
2022-09-27T05:43:29.530Z,11.84
2022-09-27T05:48:38.291Z,11.81
2022-09-27T05:53:47.930Z,11.79
2022-09-27T05:59:00.429Z,11.79
2022-09-27T06:04:09.628Z,11.80
2022-09-27T06:09:17.103Z,11.81
2022-09-27T06:14:24.831Z,11.86
2022-09-27T06:19:37.210Z,11.95
2022-09-27T06:24:43.219Z,11.96
2022-09-27T06:30:00.963Z,11.93
2022-09-27T06:35:40.883Z,11.95
2022-09-27T06:40:47.653Z,11.94
2022-09-27T06:46:06.111Z,11.95
2022-09-27T06:51:31.353Z,12.00
2022-09-27T06:56:37.226Z,12.06
2022-09-27T07:01:45.539Z,12.10
2022-09-27T07:07:18.897Z,12.18
2022-09-27T07:12:28.243Z,12.30
2022-09-27T07:17:36.174Z,12.43
2022-09-27T07:22:45.209Z,12.61
2022-09-27T07:27:52.912Z,12.74
2022-09-27T07:33:01.586Z,12.82
2022-09-27T07:38:10.850Z,12.86
2022-09-27T07:43:17.763Z,12.90
2022-09-27T07:48:23.981Z,12.97
2022-09-27T07:53:47.514Z,13.03
2022-09-27T07:59:12.237Z,13.10
2022-09-27T08:04:18.489Z,13.24
2022-09-27T08:09:26.499Z,13.35
2022-09-27T08:14:32.759Z,13.53
2022-09-27T08:19:39.791Z,13.68
2022-09-27T08:25:09.901Z,13.82
2022-09-27T08:30:25.686Z,13.94
2022-09-27T08:35:34.033Z,14.06
2022-09-27T08:40:52.208Z,14.28
2022-09-27T08:46:11.241Z,14.38
2022-09-27T08:51:21.366Z,14.40
2022-09-27T08:56:28.036Z,14.33
2022-09-27T09:01:36.311Z,14.32
2022-09-27T09:06:59.888Z,14.31
2022-09-27T09:12:37.222Z,14.38
2022-09-27T09:17:57.358Z,14.40
2022-09-27T09:23:42.321Z,14.53
2022-09-27T09:29:03.843Z,14.89
2022-09-27T09:34:18.686Z,15.26
2022-09-27T09:39:30.952Z,15.46
2022-09-27T09:44:47.709Z,15.42
2022-09-27T09:49:58.812Z,15.37
2022-09-27T09:55:16.171Z,15.42
2022-09-27T10:00:22.390Z,15.65
2022-09-27T10:05:29.941Z,16.04
2022-09-27T10:10:45.238Z,16.50
2022-09-27T10:16:14.069Z,16.74
2022-09-27T10:21:22.985Z,16.62
2022-09-27T10:26:29.034Z,16.45
2022-09-27T10:31:38.841Z,16.26
2022-09-27T10:37:17.645Z,16.15
2022-09-27T10:42:37.934Z,16.20
2022-09-27T10:47:45.892Z,16.25
2022-09-27T10:53:11.928Z,16.37
2022-09-27T10:58:24.882Z,16.31
2022-09-27T11:03:33.570Z,16.16
2022-09-27T11:08:40.594Z,16.15
2022-09-27T11:14:05.445Z,16.25
2022-09-27T11:19:27.157Z,16.31
2022-09-27T11:24:48.263Z,16.38
2022-09-27T11:30:09.787Z,16.70
2022-09-27T11:35:42.374Z,16.93
2022-09-27T11:41:11.929Z,17.02
2022-09-27T11:46:38.536Z,17.00
2022-09-27T11:52:08.981Z,16.86
2022-09-27T11:57:23.243Z,16.74
2022-09-27T12:02:57.245Z,16.96
2022-09-27T12:08:18.963Z,17.11
2022-09-27T12:13:33.371Z,17.00
2022-09-27T12:18:41.563Z,16.96
2022-09-27T12:24:03.576Z,16.94
2022-09-27T12:29:31.765Z,16.84
2022-09-27T12:34:45.811Z,16.76
2022-09-27T12:40:00.539Z,16.79
2022-09-27T12:45:17.551Z,16.97
2022-09-27T12:50:35.952Z,17.00
2022-09-27T12:56:20.362Z,16.88
2022-09-27T13:01:42.943Z,16.71
2022-09-27T13:07:03.475Z,16.59
2022-09-27T13:12:12.976Z,16.49
2022-09-27T13:17:53.388Z,16.48
2022-09-27T13:23:57.941Z,16.41
2022-09-27T13:29:23.130Z,16.52
2022-09-27T13:34:42.176Z,16.59
2022-09-27T13:40:09.910Z,16.46
2022-09-27T13:45:34.893Z,16.33
2022-09-27T13:50:56.316Z,16.44
2022-09-27T13:56:03.117Z,16.58
2022-09-27T14:01:26.183Z,16.69
2022-09-27T14:06:35.374Z,16.77
2022-09-27T14:11:44.636Z,16.79
2022-09-27T14:16:51.781Z,16.72
2022-09-27T14:21:58.860Z,16.48
2022-09-27T14:27:21.691Z,16.27
2022-09-27T14:32:32.334Z,16.15
2022-09-27T14:37:41.482Z,16.05
2022-09-27T14:42:55.332Z,16.06
2022-09-27T14:48:01.453Z,16.04
2022-09-27T14:53:23.926Z,15.98
2022-09-27T14:58:46.477Z,15.90
2022-09-27T15:03:53.914Z,15.83
2022-09-27T15:09:01.714Z,15.71
2022-09-27T15:14:13.236Z,15.59
2022-09-27T15:19:27.055Z,15.51
2022-09-27T15:24:43.883Z,15.43
2022-09-27T15:29:56.465Z,15.34
2022-09-27T15:35:08.855Z,15.25
2022-09-27T15:40:57.433Z,15.20
2022-09-27T15:46:05.383Z,15.12
2022-09-27T15:51:41.019Z,15.04
2022-09-27T15:56:50.373Z,14.96
2022-09-27T16:02:07.713Z,14.90
2022-09-27T16:07:15.685Z,14.83
2022-09-27T16:12:21.507Z,14.71
2022-09-27T16:17:27.540Z,14.59
2022-09-27T16:22:33.621Z,14.50
2022-09-27T16:27:39.804Z,14.43
2022-09-27T16:32:47.286Z,14.30
2022-09-27T16:37:53.985Z,14.22
2022-09-27T16:42:59.967Z,14.12
2022-09-27T16:48:05.682Z,14.01
2022-09-27T16:53:12.973Z,13.90
2022-09-27T16:58:18.798Z,13.83
2022-09-27T17:03:24.972Z,13.73
2022-09-27T17:08:31.395Z,13.66
2022-09-27T17:13:37.893Z,13.56
2022-09-27T17:18:43.927Z,13.44
2022-09-27T17:23:49.903Z,13.33
2022-09-27T17:28:57.183Z,13.24
2022-09-27T17:34:03.650Z,13.14
2022-09-27T17:39:13.468Z,12.95
2022-09-27T17:44:20.208Z,12.64
2022-09-27T17:49:44.950Z,12.43
2022-09-27T17:54:53.216Z,12.23
2022-09-27T17:59:59.101Z,12.08
2022-09-27T18:05:05.409Z,11.94
2022-09-27T18:10:11.407Z,11.79
2022-09-27T18:15:20.075Z,11.56
2022-09-27T18:20:26.180Z,11.47
2022-09-27T18:25:32.844Z,11.42
2022-09-27T18:30:38.909Z,11.30
2022-09-27T18:35:45.219Z,11.16
2022-09-27T18:40:57.090Z,11.04
2022-09-27T18:46:31.023Z,10.96
2022-09-27T18:51:32.590Z,10.86
2022-09-27T18:56:41.540Z,10.81
2022-09-27T19:01:47.653Z,10.94
2022-09-27T19:06:54.510Z,11.05
2022-09-27T19:12:00.547Z,11.16
2022-09-27T19:17:06.625Z,11.25
2022-09-27T19:22:12.462Z,11.36
2022-09-27T19:27:18.395Z,11.45
2022-09-27T19:32:24.181Z,11.54
2022-09-27T19:37:30.113Z,11.59
2022-09-27T19:42:36.148Z,11.65
2022-09-27T19:47:42.132Z,11.67
2022-09-27T19:52:48.864Z,11.69
2022-09-27T19:57:56.989Z,11.71
2022-09-27T20:03:02.953Z,11.73
2022-09-27T20:08:12.544Z,11.73
2022-09-27T20:13:20.309Z,11.72
2022-09-27T20:18:26.728Z,11.73
2022-09-27T20:23:34.063Z,11.73
2022-09-27T20:28:44.665Z,11.73
2022-09-27T20:33:51.199Z,11.76
2022-09-27T20:39:03.158Z,11.79
2022-09-27T20:44:12.269Z,11.78
2022-09-27T20:49:19.471Z,11.82
2022-09-27T20:54:25.847Z,11.89
2022-09-27T20:59:33.173Z,11.97
2022-09-27T21:04:39.063Z,12.04
2022-09-27T21:09:45.011Z,12.11
2022-09-27T21:14:50.739Z,12.16
2022-09-27T21:19:56.459Z,12.19
2022-09-27T21:25:02.103Z,12.17
2022-09-27T21:30:09.935Z,12.13
2022-09-27T21:35:15.898Z,12.11
2022-09-27T21:40:21.647Z,12.12
2022-09-27T21:45:27.750Z,12.15
2022-09-27T21:50:33.976Z,12.15
2022-09-27T21:55:39.816Z,12.12
2022-09-27T22:00:45.608Z,12.12
2022-09-27T22:05:52.766Z,12.11
2022-09-27T22:10:58.723Z,12.11
2022-09-27T22:16:10.132Z,12.11
2022-09-27T22:21:17.634Z,12.11
2022-09-27T22:26:25.736Z,12.14
2022-09-27T22:31:32.097Z,12.18
2022-09-27T22:36:38.077Z,12.20
2022-09-27T22:41:43.871Z,12.23
2022-09-27T22:46:49.878Z,12.24
2022-09-27T22:51:55.724Z,12.26
2022-09-27T22:57:01.401Z,12.24
2022-09-27T23:02:07.482Z,12.25
2022-09-27T23:07:13.316Z,12.30
2022-09-27T23:12:19.050Z,12.34
2022-09-27T23:17:25.495Z,12.35
2022-09-27T23:22:33.627Z,12.42
2022-09-27T23:27:42.720Z,12.48
2022-09-27T23:32:55.411Z,12.46
2022-09-27T23:38:01.327Z,12.40
2022-09-27T23:43:07.145Z,12.34
2022-09-27T23:48:13.321Z,12.30
2022-09-27T23:53:19.232Z,12.29
2022-09-27T23:58:24.945Z,12.25
